Smyrna, TN (MQY)

CessnaPCRedbird FMX


Wings of Eagles Aviation started in Smyrna (MQY) in 1998 as a small flight school. The Smyrna Airport is the third largest airport in the state of Tennessee and the busiest general aviation airport. With its longest runway being just over 8,000 feet and having its own air traffic control tower, this is the best possible training environment for all pilots. Once you learn how to fly here, you will be confident no matter where your aviation adventures take you.

Address:
278 Doug Warpoole Rd. Suite 104
Smyrna, TN 37167

Phone: (615) 355-0033

Business Hours:
Monday-Sunday 7a-10p

Wings MQY

NOAA Weather

Smyrna, TN

Last Updated on Feb 18 2018, 2:56 pm CST

Current Conditions: Fair

NOAA Icon

Temp: 60°F

Wind: SE at 9mph

Humidity: 35%

Windchill: 59°F

Your 5-Day Forecast at a Glance

Available data for KMQY from the past 2 hours
SMYRNA, TN
Metar
KMQY 182056Z 13008KT 9SM CLR 16/00 A3018 RMK AO2 SLP182 T01560000 56030

20:56 UTC

Wind: 130° 8kt

Visibility: 9 SM

Sky:

Temp: 16 deg C / 60.8 deg F

Dewpoint: 0 deg C / 32 deg F

Pressure: 30.18 inHg

TAF
KMQY 181720Z 1818/1918 15010KT P6SM SCT250 FM182200 17010KT P6SM BKN140 FM190300 18010KT P6SM VCSH SCT015 BKN035 TEMPO 1905/1909 4SM -SHRA BR BKN012 FM190900 18011KT 5SM BR BKN015 FM191300 18014KT P6SM SCT020 BKN120